AirNav   TITAN Aviation Fuels
 
 1601 users online  

GE05 Gibson Field Airport
LaFayette, Georgia, USA

GOING TO LAFAYETTE?


FAA INFORMATION EFFECTIVE 17 JUNE 2021

Location

FAA Identifier: GE05
Lat/Long: 34-36-56.0000N 085-20-35.0000W
34-36.933333N 085-20.583333W
34.6155556,-85.3430556
(estimated)
Elevation: 750 ft. / 229 m (estimated)
From city: 5 miles SSW of LAFAYETTE, GA
Time zone: UTC -4 (UTC -5 during Standard Time)
Zip code: 30753

Airport Operations

Airport use: Private use. Permission required prior to landing
Activation date: 08/2004
Control tower: no
ARTCC: ATLANTA CENTER
FSS: ANNISTON FLIGHT SERVICE STATION
Attendance: UNATNDD
Wind indicator: yes
Segmented circle: no

Airport Communications

WX AWOS-3 at 9A5 (5 nm NE): 119.775 (706-639-1976)
WX ASOS at RMG (18 nm SE): 119.925 (706-235-3335)

Nearby radio navigation aids

VOR radial/distance  VOR name  Freq  Var
GQOr203/22.8CHOO CHOO VORTAC115.8001E
RMGr337/29.3ROME VORTAC115.4001E

 
NDB name  Hdg/Dist  Freq  Var  ID
DAISY197/34.334102WCQN -.-. --.- -.

Airport Services

Runway Information

Runway 2/20

Dimensions: 2400 x 50 ft. / 732 x 15 m
Surface: turf
RUNWAY 2  RUNWAY 20
Traffic pattern: leftleft

Airport Ownership and Management from official FAA records

Ownership: Privately-owned
Owner: BLUE MT AIRPARK PROPERTY OWNERS
4749 E. BROOMTOWN RD
TRION, GA 30753
Phone (706) 638-2569
Manager: BLUE MT AIRPARK PROPERTY OWNERS
4749 E. BROOMTOWN RD
TRION, GA 30753
Phone (706) 638-2569

Airport Operational Statistics

Aircraft based on the field: 6
Single engine airplanes: 5
Helicopters: 1
    

Additional Remarks

VISITORS WELCOME BUT FILE LANDING AGREEMENT ON LINE - WWW.BLUEMOUNTAINAIRPARK.COM
FOR CD CTC CHATTANOOGA APCH AT 423-855-6478, WHEN APCH CLSD CTC ATLANTA ARTCC AT 770-210-7692.

Instrument Procedures

There are no published instrument procedures at GE05.

Some nearby airports with instrument procedures:

9A5 - Barwick Lafayette Airport (5 nm NE)
KRMG - Richard B. Russell Regional Airport - J.H. Towers Field (18 nm SE)
4A9 - Isbell Field Airport (21 nm SW)
KCZL - Tom B David Field Airport (22 nm SE)
KDNN - Dalton Municipal Airport (24 nm E)
 
Loc | Ops | Rwys | IFR | FBO | Links
Com | Nav | Svcs | Stats | Notes
Area around GE05 (Gibson Field Airport)
 
Road maps at: MapQuest Bing Google
 
Aerial photo
WARNING: Photo may not be current or correct
Aerial photo of GE05 (Gibson Field Airport)
Photo taken 04-Jul-2007
from a C3-B Stearman

Do you have a better or more recent aerial photo of Gibson Field Airport that you would like to share? If so, please send us your photo.

 
Sectional chart

 
Airport distance calculator
Flying to Gibson Field Airport? Find the distance to fly.

From to GE05

Sunrise and sunset
Times for 21-Jun-2021
 Local
(UTC-4)
 Zulu
(UTC)
Morning civil twilight06:0010:00
Sunrise06:3010:30
Sunset20:5600:56
Evening civil twilight21:2601:26

Current date and time
Zulu (UTC)  21-Jun-2021 16:23:08
Local (UTC-4)  21-Jun-2021 12:23:08
 
METAR
K9A5 
5nm NE 
211555Z AUTO 21006KT 170V230 10SM SCT027 SCT032 SCT038 29/23 A2995 RMK AO2 T02900229
KDNN 
13nm NE 
211555Z AUTO 21005KT 10SM SCT033 30/20 A2996 RMK AO2
KRMG 
18nm SE 
211553Z AUTO 23009G17KT 10SM SCT025 SCT031 30/23 A2995 RMK AO2 SLP130 T03000228
TAF
KCHA 
26nm N 
211122Z 2112/2212 22003KT P6SM BKN022 BKN150 FM211500 21012G20KT P6SM FEW030 SCT045 FM220000 23015G25KT P6SM VCTS BKN045CB FM220300 23012KT 5SM -TSRA BKN025 BKN045CB FM220700 29007KT 5SM -SHRA SCT007 OVC012
NOTAMs
Click for the latest NOTAMs
NOTAMs are issued by the DoD/FAA and will open in a separate window not controlled by AirNav.

 

 
 

Would you like to see your business listed on this page?

 If your business provides an interesting product or service to pilots, flight crews, aircraft, or users of the Gibson Field Airport, you should consider listing it here.  To start the listing process, click on the button below
 
Add a business
 

Other Pages about Gibson Field Airport

bluemountainairpark.googlepages.com
 
Update a link
 
Copyright © AirNav, LLC. All rights reserved. Privacy Policy  Contact